ナタール の空港の天気 - METARとTAF

アウグスト・セヴェーロ国際空港 ( SBNT / NAT ) - ブラジル リオグランデ・ド・ノルテ州ナタール
飛行場実況気象(Metar)
観測時間05/27 23:00 BRT (05/28 02:00 UTC)
風向・風速不定 1m/s
視程10km以上
天気現象
全天の4割程度の雲 雲底高度 580m
気温26℃
湿度89%
気圧1013hPa
METARSBNT 280200Z VRB02KT 9999 SCT019 26/24 Q1013
過去の天気等 Google飛行場航空写真 Wunderground天気予報

過去48時間のMETAR

飛行場予報(TAF)
発表時間: 5/27 18:00 BRT (5/27 21:00 UTC)
予報対象時間: 27日21時 BRT ~ 28日9時 BRT
風向・風速南東 3m/s
視程10km以上
全天の8割程度の雲 雲底高度 610m
28日6時 BRT ~ 28日9時 BRT に 確率 40% で一時的に
視程9000m
天気現象
TAF SBNT 272100Z 2800/2812 13006KT 9999 BKN020 TX27/2800Z TN25/2808Z
PROB40 TEMPO 2809/2812 9000 RA RMK PDV